Terminal Aerodrome Forecast
Issued by NWS

Current Version | Previous Version | Graphics & Text | Print | Product List | Glossary On
Versions: 1 2 3 4 5 6 7 8 9 10 11 12 13 14 15 16 17 18 19 20 21 22
000
FTUS41 KRLX 040900 AAA
TAFCKB
TAF AMD
KCKB 040914Z 0409/0506 27004KT 5SM RA BR OVC008
     FM041100 23004KT 5SM -RA OVC012
     FM041600 23004KT 2SM +RA OVC012
     FM050200 VRB03KT 2SM -SNPL OVC010
     FM050400 35005KT 1SM -SN BR OVC008=

USA.gov is the U.S. government's official web portal to all federal, state and local government web resources and services.